Hauptseite
METAR-TAF:

METAR-TAF

Flughäfen :

Port Meadville Airport

Meadville, Pennsylvania, Vereinigte Staaten

Breite: 41-37-35N, Länge: 080-12-53W, Höhe: 427 m

Beobachtung

Neuester Wetterbericht von vor 1 Stunde und 6 Minuten, um 05:53 UTC
Wind 7 kt aus Nordost
Temperatur 2°C
Luftfeuchtigkeit 93%
Luftdruck 1010 hPa
Sichtweite: 16.1 km
Geschlossene Wolkendecke in der Höhe von 500 ft
unbekannt

METAR: KGKJ 260553Z AUTO 04007KT 10SM UP OVC005 02/01 A2982 RMK AO2 RAE51UPB53 SLP106 P0000 60007 T00220011 10044 20017 58007

Zeit: 01:59 (06:59 UTC)


TAF: fehlend

Wetterbeobachtungen und Prognosen von mehr als 4000 Flughäfen (METAR und TAF Bericht).

Die verfügbaren Stationen werden durch gelbe und rote Markierungen auf der Karte dargestellt.

Führen Sie die Maus auf sie, um den Namen der Station zu sehen.

Darauf klicken, um die Beobachtung von Wetterbeobachtungen und Prognosen zu sehen.

Um die Karte zu ändern : klicken Sie auf den grünen Tasten mit einem schwarzen Kreuz Zum Vergrößern, auf den grünen Button mit einem Gedankenstrich zu verkleinern, oder auf die grünen Pfeile für benachbarte Karten.


METAR-TAF: